Nuevo Mar Dos — EAZZ — position and weather

sailwx.info

Track history (hours):
 
Tides and Currents Weather Stations Pressure Air Temp Water Temp Dewpoint Dewpoint Depression Visibility Wind Speed Wind Dir Waves Ship Positions

Nuevo Mar Dos

Last reported at 2014-Jan-08 21:33 UTC. Time now 2014-Oct-31 09:53 UTC.
Position N 43°45' W 008°32'.
Warning: this ship's position is months out of date.

Length 27 m; draft 3.5 m.

Type: Fishing. MMSI: 224042440.

Date/timePositionNaut miles runAvg speedWind from/ knotsBaromVisibWave heightAir tempDewpointWater temp
2014-Jan-08 21:33N 43°45' W 008°32'4 3.7
2014-Jan-08 20:33N 43°48' W 008°29'2 1.8
2014-Jan-08 19:33N 43°49' W 008°28'3 3.4
2014-Jan-08 18:33N 43°53' W 008°26'3 3.3
2014-Jan-08 17:33N 43°55' W 008°23'3 3.5
2014-Jan-08 16:33N 43°58' W 008°20'4 3.5
2014-Jan-08 15:29N 43°59' W 008°15'2 1.9
2014-Jan-08 14:33N 43°60' W 008°13'3 3.3
2014-Jan-08 13:33N 44°00' W 008°08'3 3.2
2014-Jan-08 12:33N 44°01' W 008°04'3 3.2
2014-Jan-08 11:33N 44°01' W 007°60'2 2.4
2014-Jan-08 10:33N 44°02' W 007°56'7 3.5
2014-Jan-08 08:32N 44°01' W 007°47'3 3.2
2014-Jan-08 07:27N 44°01' W 007°51'3 3.2
2014-Jan-08 06:31N 44°01' W 007°56'3 3.3
2014-Jan-08 05:32N 44°00' W 007°60'3 3.2
2014-Jan-08 04:33N 43°59' W 008°04'3 3.2
2014-Jan-08 03:33N 43°58' W 008°08'4 3.7
2014-Jan-08 02:33N 43°57' W 008°13'1 1.0
2014-Jan-08 01:33N 43°56' W 008°12'3 3.1
2014-Jan-08 00:33N 43°55' W 008°16'3 3.2
2014-Jan-07 23:33N 43°54' W 008°20'3 3.2
2014-Jan-07 22:33N 43°52' W 008°23'3 3.3
2014-Jan-07 21:33N 43°49' W 008°27'3 3.4
2014-Jan-07 20:33N 43°47' W 008°30'3 3.0
2014-Jan-07 19:33N 43°50' W 008°28'3 3.2
2014-Jan-07 18:33N 43°52' W 008°25'3 3.2
2014-Jan-07 17:33N 43°55' W 008°22'3 3.2
2014-Jan-07 16:34N 43°57' W 008°20'4 3.5
2014-Jan-07 15:32N 43°59' W 008°15'1 1.2
2014-Jan-07 14:33N 43°58' W 008°17'3 3.2
2014-Jan-07 13:33N 43°56' W 008°20'  
2013-Dec-29 23:25N 43°21' W 008°23'  
Track history (hours):
 
Tides and Currents Weather Stations Pressure Air Temp Water Temp Dewpoint Dewpoint Depression Visibility Wind Speed Wind Dir Waves Ship Positions

Nuevo Mar Dos

Last reported at 2014-Jan-08 21:33 UTC. Time now 2014-Oct-31 09:53 UTC.
Position N 43°45' W 008°32'.
Warning: this ship's position is months out of date.

Length 27 m; draft 3.5 m.

Type: Fishing. MMSI: 224042440.

Date/timePositionNaut miles runAvg speedWind from/ knotsBaromVisibWave heightAir tempDewpointWater temp
2014-Jan-08 21:33N 43°45' W 008°32'4 3.7
2014-Jan-08 20:33N 43°48' W 008°29'2 1.8
2014-Jan-08 19:33N 43°49' W 008°28'3 3.4
2014-Jan-08 18:33N 43°53' W 008°26'3 3.3
2014-Jan-08 17:33N 43°55' W 008°23'3 3.5
2014-Jan-08 16:33N 43°58' W 008°20'4 3.5
2014-Jan-08 15:29N 43°59' W 008°15'2 1.9
2014-Jan-08 14:33N 43°60' W 008°13'3 3.3
2014-Jan-08 13:33N 44°00' W 008°08'3 3.2
2014-Jan-08 12:33N 44°01' W 008°04'3 3.2
2014-Jan-08 11:33N 44°01' W 007°60'2 2.4
2014-Jan-08 10:33N 44°02' W 007°56'7 3.5
2014-Jan-08 08:32N 44°01' W 007°47'3 3.2
2014-Jan-08 07:27N 44°01' W 007°51'3 3.2
2014-Jan-08 06:31N 44°01' W 007°56'3 3.3
2014-Jan-08 05:32N 44°00' W 007°60'3 3.2
2014-Jan-08 04:33N 43°59' W 008°04'3 3.2
2014-Jan-08 03:33N 43°58' W 008°08'4 3.7
2014-Jan-08 02:33N 43°57' W 008°13'1 1.0
2014-Jan-08 01:33N 43°56' W 008°12'3 3.1
2014-Jan-08 00:33N 43°55' W 008°16'3 3.2
2014-Jan-07 23:33N 43°54' W 008°20'3 3.2
2014-Jan-07 22:33N 43°52' W 008°23'3 3.3
2014-Jan-07 21:33N 43°49' W 008°27'3 3.4
2014-Jan-07 20:33N 43°47' W 008°30'3 3.0
2014-Jan-07 19:33N 43°50' W 008°28'3 3.2
2014-Jan-07 18:33N 43°52' W 008°25'3 3.2
2014-Jan-07 17:33N 43°55' W 008°22'3 3.2
2014-Jan-07 16:34N 43°57' W 008°20'4 3.5
2014-Jan-07 15:32N 43°59' W 008°15'1 1.2
2014-Jan-07 14:33N 43°58' W 008°17'3 3.2
2014-Jan-07 13:33N 43°56' W 008°20'  
2013-Dec-29 23:25N 43°21' W 008°23'  

Dump ship's entire track history